createdAt,value
2022-11-22T00:01:26.874Z,17.42
2022-11-22T00:03:55.779Z,20.75
2022-11-22T00:06:24.645Z,18.40
2022-11-22T00:08:53.516Z,18.20
2022-11-22T00:11:22.413Z,17.23
2022-11-22T00:13:51.311Z,19.88
2022-11-22T00:16:20.227Z,17.98
2022-11-22T00:18:49.142Z,19.63
2022-11-22T00:21:18.009Z,16.70
2022-11-22T00:23:46.926Z,16.90
2022-11-22T00:26:16.159Z,17.42
2022-11-22T00:28:46.160Z,19.50
2022-11-22T00:31:15.136Z,19.45
2022-11-22T00:33:44.217Z,22.88
2022-11-22T00:36:13.159Z,19.48
2022-11-22T00:38:42.067Z,16.42
2022-11-22T00:41:11.497Z,15.30
2022-11-22T00:43:40.453Z,20.13
2022-11-22T00:46:09.631Z,20.40
2022-11-22T00:48:38.576Z,23.25
2022-11-22T00:51:07.597Z,26.27
2022-11-22T00:53:36.585Z,15.75
2022-11-22T00:56:05.993Z,18.23
2022-11-22T00:58:34.976Z,18.67
2022-11-22T01:01:04.080Z,18.48
2022-11-22T01:03:33.313Z,17.80
2022-11-22T01:06:02.297Z,16.08
2022-11-22T01:08:31.210Z,16.50
2022-11-22T01:11:01.308Z,16.85
2022-11-22T01:13:31.745Z,25.75
2022-11-22T01:16:06.415Z,24.63
2022-11-22T01:18:36.133Z,24.60
2022-11-22T01:21:07.173Z,20.35
2022-11-22T01:23:36.508Z,16.48
2022-11-22T01:26:08.029Z,15.80
2022-11-22T01:28:37.311Z,18.27
2022-11-22T01:31:06.289Z,16.15
2022-11-22T01:33:35.189Z,16.05
2022-11-22T01:36:10.514Z,15.77
2022-11-22T01:38:40.618Z,12.48
2022-11-22T01:41:09.562Z,13.32
2022-11-22T01:43:38.534Z,19.38
2022-11-22T01:46:27.168Z,12.18
2022-11-22T01:48:56.227Z,12.75
2022-11-22T01:51:39.993Z,15.90
2022-11-22T01:54:13.162Z,13.35
2022-11-22T01:56:46.094Z,12.68
2022-11-22T01:59:18.459Z,13.07
2022-11-22T02:01:47.433Z,12.20
2022-11-22T02:04:19.274Z,12.07
2022-11-22T02:07:12.605Z,12.00
2022-11-22T02:09:43.823Z,11.52
2022-11-22T02:12:14.853Z,12.95
2022-11-22T02:14:44.549Z,12.55
2022-11-22T02:17:13.617Z,11.00
2022-11-22T02:19:45.967Z,11.07
2022-11-22T02:22:32.954Z,11.73
2022-11-22T02:25:06.254Z,10.88
2022-11-22T02:27:35.572Z,11.13
2022-11-22T02:30:04.583Z,11.38
2022-11-22T02:32:33.505Z,11.07
2022-11-22T02:35:02.482Z,10.65
2022-11-22T02:37:34.529Z,10.65
2022-11-22T02:40:10.002Z,12.23
2022-11-22T02:42:39.096Z,10.32
2022-11-22T02:45:08.655Z,10.18
2022-11-22T02:47:37.519Z,10.30
2022-11-22T02:50:06.850Z,11.20
2022-11-22T02:52:35.739Z,9.90
2022-11-22T02:55:04.994Z,10.32
2022-11-22T02:57:34.454Z,10.25
2022-11-22T03:00:05.626Z,11.30
2022-11-22T03:02:34.477Z,11.40
2022-11-22T03:05:03.400Z,10.98
2022-11-22T03:07:32.412Z,11.63
2022-11-22T03:10:01.466Z,11.40
2022-11-22T03:12:30.604Z,10.98
2022-11-22T03:14:59.618Z,11.82
2022-11-22T03:17:28.824Z,12.38
2022-11-22T03:19:57.772Z,11.75
2022-11-22T03:22:26.960Z,10.23
2022-11-22T03:24:55.918Z,10.98
2022-11-22T03:27:24.927Z,10.68
2022-11-22T03:29:53.783Z,11.73
2022-11-22T03:32:30.829Z,11.20
2022-11-22T03:34:59.738Z,11.00
2022-11-22T03:37:28.663Z,10.48
2022-11-22T03:39:57.512Z,10.32
2022-11-22T03:42:26.520Z,12.43
2022-11-22T03:44:57.991Z,11.05
2022-11-22T03:47:26.920Z,12.60
2022-11-22T03:49:55.795Z,13.00
2022-11-22T03:52:27.409Z,11.05
2022-11-22T03:54:59.331Z,10.75
2022-11-22T03:57:28.657Z,9.90
2022-11-22T03:59:57.723Z,10.27
2022-11-22T04:02:26.594Z,9.73
2022-11-22T04:04:55.533Z,11.18
2022-11-22T04:07:24.673Z,8.93
2022-11-22T04:09:53.638Z,10.07
2022-11-22T04:12:22.647Z,8.02
2022-11-22T04:15:09.599Z,9.27
2022-11-22T04:17:45.954Z,9.52
2022-11-22T04:20:50.244Z,9.55
2022-11-22T04:23:21.879Z,8.60
2022-11-22T04:25:53.145Z,8.60
2022-11-22T04:29:01.371Z,9.55
2022-11-22T04:31:36.037Z,9.63
2022-11-22T04:34:04.863Z,10.45
2022-11-22T04:36:33.754Z,9.23
2022-11-22T04:39:02.592Z,9.32
2022-11-22T04:41:31.515Z,10.35
2022-11-22T04:44:18.671Z,9.70
2022-11-22T04:46:50.130Z,10.18
2022-11-22T04:49:19.237Z,8.57
2022-11-22T04:52:06.373Z,10.05
2022-11-22T04:54:38.450Z,13.50
2022-11-22T04:57:07.358Z,9.30
2022-11-22T04:59:36.280Z,9.00
2022-11-22T05:02:05.284Z,8.57
2022-11-22T05:04:34.365Z,8.60
2022-11-22T05:07:04.120Z,8.60
2022-11-22T05:09:33.077Z,7.88
2022-11-22T05:12:01.998Z,8.32
2022-11-22T05:14:30.855Z,8.55
2022-11-22T05:16:59.760Z,8.70
2022-11-22T05:19:29.010Z,8.02
2022-11-22T05:21:58.158Z,8.27
2022-11-22T05:24:27.065Z,7.95
2022-11-22T05:26:55.918Z,8.93
2022-11-22T05:29:24.747Z,8.57
2022-11-22T05:31:53.602Z,8.65
2022-11-22T05:34:22.475Z,7.55
2022-11-22T05:36:51.421Z,8.20
2022-11-22T05:39:20.272Z,8.32
2022-11-22T05:41:56.909Z,8.48
2022-11-22T05:44:25.861Z,7.53
2022-11-22T05:46:54.783Z,8.77
2022-11-22T05:49:23.691Z,8.13
2022-11-22T05:51:56.686Z,8.45
2022-11-22T05:54:25.748Z,8.35
2022-11-22T05:56:55.240Z,6.30
2022-11-22T05:59:24.596Z,7.07
2022-11-22T06:01:53.679Z,6.65
2022-11-22T06:04:22.693Z,6.60
2022-11-22T06:06:51.602Z,6.55
2022-11-22T06:09:20.522Z,6.25
2022-11-22T06:11:49.415Z,7.07
2022-11-22T06:14:18.387Z,6.53
2022-11-22T06:16:47.271Z,7.10
2022-11-22T06:19:16.270Z,7.28
2022-11-22T06:21:45.264Z,6.38
2022-11-22T06:24:14.286Z,6.45
2022-11-22T06:26:43.264Z,6.18
2022-11-22T06:29:12.660Z,6.28
2022-11-22T06:31:41.708Z,6.10
2022-11-22T06:34:13.728Z,11.95
2022-11-22T06:36:42.862Z,6.72
2022-11-22T06:39:12.491Z,6.65
2022-11-22T06:41:41.461Z,8.27
2022-11-22T06:44:11.403Z,7.10
2022-11-22T06:46:40.534Z,6.97
2022-11-22T06:49:09.531Z,6.55
2022-11-22T06:51:38.699Z,6.43
2022-11-22T06:54:07.779Z,6.93
2022-11-22T06:56:44.261Z,8.43
2022-11-22T06:59:13.210Z,6.82
2022-11-22T07:01:42.349Z,5.90
2022-11-22T07:04:12.220Z,6.32
2022-11-22T07:06:44.675Z,7.50
2022-11-22T07:09:14.162Z,10.25
2022-11-22T07:11:43.478Z,7.40
2022-11-22T07:14:12.465Z,6.38
2022-11-22T07:16:41.464Z,6.30
2022-11-22T07:19:11.691Z,6.43
2022-11-22T07:21:40.684Z,7.05
2022-11-22T07:24:10.506Z,7.05
2022-11-22T07:26:39.610Z,6.85
2022-11-22T07:29:08.680Z,6.45
2022-11-22T07:31:37.583Z,6.72
2022-11-22T07:34:06.631Z,7.13
2022-11-22T07:36:36.951Z,6.65
2022-11-22T07:39:05.990Z,6.20
2022-11-22T07:41:37.181Z,6.53
2022-11-22T07:44:06.237Z,5.70
2022-11-22T07:46:35.249Z,6.88
2022-11-22T07:49:04.732Z,7.43
2022-11-22T07:51:33.772Z,6.63
2022-11-22T07:54:02.983Z,6.38
2022-11-22T07:56:31.949Z,6.05
2022-11-22T07:59:03.218Z,6.18
2022-11-22T08:01:35.462Z,6.95
2022-11-22T08:04:04.555Z,6.57
2022-11-22T08:06:35.833Z,6.32
2022-11-22T08:09:05.039Z,6.13
2022-11-22T08:11:34.106Z,6.45
2022-11-22T08:14:02.987Z,5.75
2022-11-22T08:16:31.872Z,5.95
2022-11-22T08:19:00.991Z,6.05
2022-11-22T08:21:29.884Z,6.95
2022-11-22T08:24:01.943Z,6.20
2022-11-22T08:26:31.051Z,11.73
2022-11-22T08:29:00.021Z,6.55
2022-11-22T08:31:29.419Z,6.63
2022-11-22T08:33:58.519Z,9.82
2022-11-22T08:36:30.699Z,7.32
2022-11-22T08:39:00.212Z,12.82
2022-11-22T08:41:29.152Z,6.22
2022-11-22T08:43:58.018Z,6.40
2022-11-22T08:46:26.942Z,6.15
2022-11-22T08:48:55.823Z,6.10
2022-11-22T08:51:24.847Z,7.85
2022-11-22T08:53:56.877Z,6.93
2022-11-22T08:56:26.234Z,7.22
2022-11-22T08:59:01.499Z,7.32
2022-11-22T09:01:30.919Z,7.03
2022-11-22T09:03:59.872Z,5.97
2022-11-22T09:12:07.582Z,7.07
2022-11-22T09:14:36.740Z,7.03
2022-11-22T09:17:07.277Z,8.20
2022-11-22T09:19:36.152Z,6.45
2022-11-22T09:22:05.165Z,6.65
2022-11-22T09:24:34.119Z,6.28
2022-11-22T09:27:03.086Z,6.72
2022-11-22T09:29:32.296Z,6.60
2022-11-22T09:32:01.339Z,7.50
2022-11-22T09:34:30.308Z,7.13
2022-11-22T09:37:12.605Z,7.68
2022-11-22T09:39:47.931Z,7.68
2022-11-22T09:42:38.860Z,13.02
2022-11-22T09:45:37.102Z,15.23
2022-11-22T09:48:18.987Z,7.88
2022-11-22T09:51:08.247Z,7.13
2022-11-22T09:54:24.940Z,8.35
2022-11-22T09:57:00.915Z,8.80
2022-11-22T09:59:37.181Z,8.50
2022-11-22T10:02:18.721Z,7.50
2022-11-22T10:05:02.524Z,8.57
2022-11-22T10:07:58.838Z,9.63
2022-11-22T10:10:34.644Z,8.88
2022-11-22T10:13:07.155Z,9.13
2022-11-22T10:16:04.476Z,8.43
2022-11-22T10:18:41.152Z,12.45
2022-11-22T10:21:17.089Z,11.88
2022-11-22T10:23:48.912Z,9.95
2022-11-22T10:26:36.543Z,9.15
2022-11-22T10:29:43.934Z,10.27
2022-11-22T10:32:38.637Z,9.30
2022-11-22T10:35:23.356Z,8.70
2022-11-22T10:38:22.187Z,8.30
2022-11-22T10:41:07.771Z,8.98
2022-11-22T10:44:13.684Z,7.60
2022-11-22T10:46:56.504Z,8.32
2022-11-22T10:49:49.099Z,10.10
2022-11-22T10:52:45.583Z,14.20
2022-11-22T10:55:52.754Z,13.27
2022-11-22T10:58:33.640Z,13.65
2022-11-22T11:01:33.625Z,13.05
2022-11-22T11:04:04.930Z,8.55
2022-11-22T11:07:13.805Z,8.98
2022-11-22T11:12:56.881Z,8.20
2022-11-22T11:15:30.780Z,9.85
2022-11-22T11:18:05.939Z,8.40
2022-11-22T11:20:40.720Z,8.55
2022-11-22T11:23:15.140Z,9.38
2022-11-22T11:25:46.772Z,10.10
2022-11-22T11:28:26.350Z,10.90
2022-11-22T11:31:09.964Z,10.45
2022-11-22T11:33:41.927Z,9.30
2022-11-22T11:36:25.838Z,8.98
2022-11-22T11:38:59.315Z,9.77
2022-11-22T11:41:28.359Z,9.70
2022-11-22T11:43:59.620Z,8.48
2022-11-22T11:46:46.737Z,10.63
2022-11-22T11:49:18.146Z,10.73
2022-11-22T11:51:55.660Z,11.55
2022-11-22T11:54:24.516Z,9.95
2022-11-22T11:57:01.932Z,12.90
2022-11-22T11:59:46.703Z,10.43
2022-11-22T12:02:37.974Z,10.23
2022-11-22T12:05:30.704Z,10.65
2022-11-22T12:08:00.424Z,9.90
2022-11-22T12:10:56.905Z,9.68
2022-11-22T12:14:12.259Z,13.02
2022-11-22T12:16:40.344Z,11.40
2022-11-22T12:19:33.532Z,13.63
2022-11-22T12:22:48.989Z,10.50
2022-11-22T12:25:46.847Z,12.00
2022-11-22T12:28:25.695Z,11.32
2022-11-22T12:31:37.778Z,11.10
2022-11-22T12:34:23.651Z,11.15
2022-11-22T12:37:01.096Z,11.75
2022-11-22T12:39:31.476Z,10.60
2022-11-22T12:42:10.753Z,10.43
2022-11-22T12:44:44.875Z,10.68
2022-11-22T12:47:21.933Z,11.63
2022-11-22T12:49:57.246Z,10.80
2022-11-22T12:52:41.530Z,10.85
2022-11-22T12:55:32.224Z,10.52
2022-11-22T12:58:13.213Z,10.05
2022-11-22T13:01:10.117Z,11.10
2022-11-22T13:04:05.058Z,11.88
2022-11-22T13:07:02.172Z,10.57
2022-11-22T13:09:37.687Z,10.50
2022-11-22T13:12:35.163Z,10.93
2022-11-22T13:15:05.793Z,10.82
2022-11-22T13:17:40.226Z,10.23
2022-11-22T13:20:41.152Z,10.13
2022-11-22T13:23:20.924Z,12.73
2022-11-22T13:26:17.821Z,10.73
2022-11-22T13:28:48.178Z,12.10
2022-11-22T13:31:20.732Z,11.63
2022-11-22T13:34:03.162Z,10.45
2022-11-22T13:36:32.030Z,13.15
2022-11-22T13:39:03.832Z,13.00
2022-11-22T13:41:58.850Z,12.52
2022-11-22T13:44:37.663Z,12.07
2022-11-22T13:47:26.310Z,11.73
2022-11-22T13:49:56.026Z,11.52
2022-11-22T13:52:26.413Z,11.73
2022-11-22T13:54:55.281Z,11.88
2022-11-22T13:57:36.833Z,11.68
2022-11-22T14:00:22.688Z,11.68
2022-11-22T14:03:13.011Z,12.98
2022-11-22T14:05:49.818Z,15.40
2022-11-22T14:08:37.110Z,13.18
2022-11-22T14:11:13.475Z,12.55
2022-11-22T14:13:53.409Z,12.18
2022-11-22T14:16:38.046Z,12.55
2022-11-22T14:19:40.848Z,12.65
2022-11-22T14:22:20.140Z,12.30
2022-11-22T14:25:33.961Z,12.43
2022-11-22T14:28:39.440Z,12.38
2022-11-22T14:31:22.776Z,11.43
2022-11-22T14:34:15.938Z,13.17
2022-11-22T14:36:45.583Z,11.60
2022-11-22T14:40:05.307Z,11.07
2022-11-22T14:42:55.652Z,12.70
2022-11-22T14:45:42.639Z,12.75
2022-11-22T14:48:20.026Z,12.30
2022-11-22T14:51:05.771Z,12.23
2022-11-22T14:53:35.629Z,12.75
2022-11-22T14:56:30.972Z,12.18
2022-11-22T14:59:12.690Z,12.00
2022-11-22T15:02:03.008Z,14.02
2022-11-22T15:09:13.833Z,10.98
2022-11-22T15:09:21.752Z,11.10
2022-11-22T15:11:20.117Z,11.95
2022-11-22T15:14:19.899Z,10.32
2022-11-22T15:57:45.574Z,10.77
2022-11-22T16:00:24.620Z,10.43
2022-11-22T16:02:59.398Z,10.82
2022-11-22T16:06:08.978Z,9.57
2022-11-22T16:08:27.873Z,10.60
2022-11-22T16:11:01.809Z,9.48
2022-11-22T16:13:37.115Z,9.73
2022-11-22T16:16:17.812Z,8.73
2022-11-22T16:18:48.171Z,9.75
2022-11-22T16:21:30.030Z,9.00
2022-11-22T16:24:18.259Z,10.63
2022-11-22T16:26:59.407Z,8.98
2022-11-22T16:29:38.098Z,9.10
2022-11-22T16:32:15.402Z,9.60
2022-11-22T16:34:45.122Z,9.50
2022-11-22T16:37:28.957Z,9.10
2022-11-22T16:40:00.163Z,9.60
2022-11-22T16:42:29.196Z,9.10
2022-11-22T16:45:03.586Z,8.80
2022-11-22T16:47:33.312Z,9.23
2022-11-22T16:50:02.325Z,8.48
2022-11-22T16:52:31.219Z,8.52
2022-11-22T16:55:00.134Z,7.80
2022-11-22T16:57:29.035Z,8.35
2022-11-22T16:59:57.942Z,8.98
2022-11-22T17:02:27.364Z,8.63
2022-11-22T17:04:56.444Z,8.55
2022-11-22T17:07:25.436Z,8.48
2022-11-22T17:09:55.454Z,10.00
2022-11-22T17:12:33.520Z,9.15
2022-11-22T17:15:02.883Z,9.60
2022-11-22T17:17:31.789Z,9.02
2022-11-22T17:20:00.695Z,7.97
2022-11-22T17:22:30.169Z,8.05
2022-11-22T17:24:59.769Z,8.32
2022-11-22T17:27:28.625Z,8.95
2022-11-22T17:29:57.494Z,8.98
2022-11-22T17:32:26.390Z,10.38
2022-11-22T17:34:56.357Z,9.20
2022-11-22T17:37:25.771Z,8.65
2022-11-22T17:39:54.720Z,8.45
2022-11-22T17:42:25.233Z,8.93
2022-11-22T17:44:54.162Z,9.07
2022-11-22T17:47:23.317Z,8.98
2022-11-22T17:49:52.255Z,8.60
2022-11-22T17:52:21.203Z,8.63
2022-11-22T17:54:50.119Z,9.57
2022-11-22T17:57:19.406Z,8.63
2022-11-22T17:59:48.325Z,9.90
2022-11-22T18:02:17.193Z,9.55
2022-11-22T18:04:46.070Z,10.02
2022-11-22T18:07:15.338Z,9.27
2022-11-22T18:09:44.264Z,9.27
2022-11-22T18:12:13.206Z,10.52
2022-11-22T18:14:42.066Z,9.90
2022-11-22T18:17:11.110Z,10.13
2022-11-22T18:19:40.646Z,9.60
2022-11-22T18:22:10.040Z,10.32
2022-11-22T18:24:38.906Z,9.50
2022-11-22T18:27:07.874Z,9.88
2022-11-22T18:29:42.610Z,10.45
2022-11-22T18:32:12.671Z,10.95
2022-11-22T18:34:42.863Z,9.63
2022-11-22T18:37:11.894Z,10.02
2022-11-22T18:39:41.601Z,9.50
2022-11-22T18:42:16.286Z,10.15
2022-11-22T18:44:45.138Z,8.77
2022-11-22T18:47:14.069Z,10.57
2022-11-22T18:49:43.030Z,9.20
2022-11-22T18:52:14.953Z,9.57
2022-11-22T18:54:46.748Z,9.48
2022-11-22T18:57:15.642Z,9.02
2022-11-22T18:59:44.521Z,9.50
2022-11-22T19:02:13.419Z,10.52
2022-11-22T19:04:42.269Z,9.80
2022-11-22T19:07:11.198Z,10.27
2022-11-22T19:09:40.106Z,11.00
2022-11-22T19:12:08.992Z,10.43
2022-11-22T19:14:37.933Z,9.98
2022-11-22T19:17:07.545Z,9.77
2022-11-22T19:19:36.535Z,9.43
2022-11-22T19:22:05.869Z,10.20
2022-11-22T19:24:35.376Z,10.10
2022-11-22T19:27:06.064Z,10.65
2022-11-22T19:29:35.135Z,9.48
2022-11-22T19:32:04.246Z,10.05
2022-11-22T19:34:33.276Z,9.70
2022-11-22T19:37:02.258Z,9.15
2022-11-22T19:39:31.480Z,10.60
2022-11-22T19:42:00.596Z,10.77
2022-11-22T19:44:29.496Z,8.80
2022-11-22T19:46:58.634Z,9.45
2022-11-22T19:49:27.514Z,9.50
2022-11-22T19:51:56.530Z,10.20
2022-11-22T19:54:25.459Z,9.88
2022-11-22T19:56:54.452Z,10.25
2022-11-22T19:59:23.347Z,9.18
2022-11-22T20:01:52.359Z,9.95
2022-11-22T20:04:21.285Z,9.38
2022-11-22T20:06:50.578Z,9.90
2022-11-22T20:09:19.595Z,10.52
2022-11-22T20:11:48.573Z,10.43
2022-11-22T20:14:17.452Z,10.77
2022-11-22T20:16:46.337Z,9.48
2022-11-22T20:19:16.411Z,10.32
2022-11-22T20:21:45.961Z,9.95
2022-11-22T20:24:14.859Z,9.52
2022-11-22T20:26:44.853Z,9.75
2022-11-22T20:29:15.362Z,10.32
2022-11-22T20:31:44.503Z,9.30
2022-11-22T20:34:14.868Z,9.68
2022-11-22T20:36:44.095Z,10.25
2022-11-22T20:39:15.080Z,8.82
2022-11-22T20:41:43.989Z,10.07
2022-11-22T20:44:16.324Z,9.25
2022-11-22T20:46:46.355Z,9.63
2022-11-22T20:49:15.289Z,8.95
2022-11-22T20:51:44.490Z,8.68
2022-11-22T20:54:13.652Z,8.82
2022-11-22T20:56:42.567Z,8.32
2022-11-22T20:59:11.689Z,8.60
2022-11-22T21:01:40.711Z,9.60
2022-11-22T21:04:09.850Z,9.93
2022-11-22T21:06:38.760Z,8.93
2022-11-22T21:09:07.713Z,9.63
2022-11-22T21:11:37.050Z,9.43
2022-11-22T21:14:06.262Z,9.98
2022-11-22T21:16:35.257Z,10.50
2022-11-22T21:19:08.403Z,11.50
2022-11-22T21:21:39.485Z,10.03
2022-11-22T21:24:09.354Z,9.85
2022-11-22T21:26:38.302Z,9.80
2022-11-22T21:29:16.183Z,10.15
2022-11-22T21:31:45.764Z,9.38
2022-11-22T21:34:14.845Z,9.40
2022-11-22T21:36:43.920Z,8.63
2022-11-22T21:39:12.826Z,9.10
2022-11-22T21:41:41.934Z,8.57
2022-11-22T21:44:11.894Z,8.60
2022-11-22T21:46:41.306Z,8.40
2022-11-22T21:49:10.271Z,9.30
2022-11-22T21:51:39.172Z,8.98
2022-11-22T21:54:08.330Z,10.88
2022-11-22T21:56:37.478Z,9.63
2022-11-22T21:59:06.493Z,10.30
2022-11-22T22:01:35.990Z,12.25
2022-11-22T22:04:05.909Z,10.80
2022-11-22T22:06:34.922Z,12.27
2022-11-22T22:09:04.164Z,15.57
2022-11-22T22:11:33.019Z,18.02
2022-11-22T22:14:01.977Z,16.42
2022-11-22T22:16:31.184Z,10.82
2022-11-22T22:19:05.439Z,13.35
2022-11-22T22:21:37.130Z,12.57
2022-11-22T22:24:06.277Z,12.68
2022-11-22T22:26:35.185Z,12.73
2022-11-22T22:29:04.216Z,12.82
2022-11-22T22:31:34.541Z,13.88
2022-11-22T22:34:03.438Z,12.70
2022-11-22T22:36:32.422Z,13.38
2022-11-22T22:39:01.335Z,13.70
2022-11-22T22:41:30.293Z,10.05
2022-11-22T22:43:59.364Z,13.05
2022-11-22T22:46:28.378Z,14.95
2022-11-22T22:48:57.942Z,17.27
2022-11-22T22:51:32.935Z,17.85
2022-11-22T22:54:03.359Z,14.63
2022-11-22T22:56:33.496Z,10.25
2022-11-22T22:59:02.529Z,10.80
2022-11-22T23:01:32.911Z,10.32
2022-11-22T23:04:03.422Z,13.45
2022-11-22T23:06:34.656Z,12.55
2022-11-22T23:09:04.210Z,12.43
2022-11-22T23:11:52.888Z,11.40
2022-11-22T23:14:27.261Z,10.27
2022-11-22T23:16:58.315Z,10.05
2022-11-22T23:19:28.587Z,9.18
2022-11-22T23:21:58.168Z,10.57
2022-11-22T23:24:27.324Z,14.07
2022-11-22T23:26:56.197Z,10.23
2022-11-22T23:29:25.217Z,9.98
2022-11-22T23:31:54.435Z,10.13
2022-11-22T23:34:23.393Z,10.13
2022-11-22T23:36:52.289Z,10.82
2022-11-22T23:39:21.836Z,9.05
2022-11-22T23:41:50.876Z,10.27
2022-11-22T23:44:19.791Z,9.45
2022-11-22T23:46:48.640Z,9.25
2022-11-22T23:49:17.575Z,10.45
2022-11-22T23:51:48.637Z,11.48
2022-11-22T23:54:18.111Z,8.93
2022-11-22T23:56:47.017Z,10.32
2022-11-22T23:59:15.959Z,9.48
